createdAt,value
2023-01-01T00:01:42.958Z,3.92
2023-01-01T00:04:13.126Z,3.93
2023-01-01T00:06:40.315Z,3.95
2023-01-01T00:09:27.286Z,3.96
2023-01-01T00:11:54.299Z,3.94
2023-01-01T00:14:21.590Z,3.90
2023-01-01T00:16:48.686Z,3.91
2023-01-01T00:19:15.656Z,3.91
2023-01-01T00:21:42.805Z,3.91
2023-01-01T00:24:11.321Z,3.91
2023-01-01T00:26:38.290Z,3.91
2023-01-01T00:29:05.696Z,3.90
2023-01-01T00:31:32.998Z,3.87
2023-01-01T00:34:00.116Z,3.86
2023-01-01T00:36:28.457Z,3.84
2023-01-01T00:38:56.170Z,3.84
2023-01-01T00:41:24.591Z,3.86
2023-01-01T00:43:51.791Z,3.86
2023-01-01T00:46:19.056Z,3.88
2023-01-01T00:48:46.103Z,3.88
2023-01-01T00:51:13.803Z,3.86
2023-01-01T00:53:41.028Z,3.84
2023-01-01T00:56:08.274Z,3.81
2023-01-01T00:58:36.617Z,3.82
2023-01-01T01:01:04.193Z,3.79
2023-01-01T01:03:31.420Z,3.77
2023-01-01T01:06:00.637Z,3.72
2023-01-01T01:08:30.936Z,3.66
2023-01-01T01:11:05.070Z,3.56
2023-01-01T01:13:32.199Z,3.47
2023-01-01T01:16:00.804Z,3.41
2023-01-01T01:18:27.926Z,3.38
2023-01-01T01:20:55.078Z,3.36
2023-01-01T01:23:22.021Z,3.35
2023-01-01T01:25:49.042Z,3.34
2023-01-01T01:28:15.997Z,3.34
2023-01-01T01:30:43.066Z,3.32
2023-01-01T01:33:11.472Z,3.28
2023-01-01T01:35:38.451Z,3.24
2023-01-01T01:38:05.432Z,3.21
2023-01-01T01:40:33.748Z,3.21
2023-01-01T01:43:00.719Z,3.17
2023-01-01T01:45:33.172Z,3.16
2023-01-01T01:48:01.242Z,3.11
2023-01-01T01:50:33.967Z,3.13
2023-01-01T01:53:07.023Z,3.14
2023-01-01T01:55:36.907Z,3.12
2023-01-01T01:58:05.719Z,3.09
2023-01-01T02:00:32.708Z,3.07
2023-01-01T02:03:04.368Z,3.05
2023-01-01T02:05:34.274Z,3.03
2023-01-01T02:08:02.885Z,3.01
2023-01-01T02:10:29.979Z,2.99
2023-01-01T02:12:57.066Z,2.98
2023-01-01T02:15:28.352Z,2.96
2023-01-01T02:18:01.113Z,2.99
2023-01-01T02:20:49.282Z,2.92
2023-01-01T02:23:29.727Z,2.90
2023-01-01T02:26:16.595Z,2.86
2023-01-01T02:28:52.135Z,2.87
2023-01-01T02:31:24.744Z,2.88
2023-01-01T02:33:55.299Z,2.92
2023-01-01T02:36:24.433Z,2.96
2023-01-01T02:38:54.796Z,2.97
2023-01-01T02:41:26.416Z,2.98
2023-01-01T02:48:50.070Z,2.98
2023-01-01T02:51:26.408Z,2.98
2023-01-01T02:54:00.273Z,2.97
2023-01-01T02:56:36.295Z,2.92
2023-01-01T02:59:35.859Z,2.87
2023-01-01T03:02:11.549Z,2.83
2023-01-01T03:04:49.908Z,2.83
2023-01-01T03:07:24.293Z,2.79
2023-01-01T03:09:58.312Z,2.75
2023-01-01T03:12:43.567Z,2.74
2023-01-01T03:15:20.464Z,2.73
2023-01-01T03:17:55.303Z,2.72
2023-01-01T03:20:25.823Z,2.67
2023-01-01T03:22:55.773Z,2.62
2023-01-01T03:25:25.275Z,2.60
2023-01-01T03:27:57.408Z,2.58
2023-01-01T03:30:26.352Z,2.54
2023-01-01T03:33:07.977Z,2.52
2023-01-01T03:35:40.982Z,2.49
2023-01-01T03:38:12.457Z,2.45
2023-01-01T03:40:40.443Z,2.44
2023-01-01T03:43:14.055Z,2.44
2023-01-01T03:45:45.628Z,2.42
2023-01-01T03:48:12.719Z,2.43
2023-01-01T03:50:50.243Z,2.47
2023-01-01T03:53:25.759Z,2.47
2023-01-01T03:56:01.413Z,2.44
2023-01-01T03:58:35.396Z,2.46
2023-01-01T04:01:09.674Z,2.43
2023-01-01T04:03:38.890Z,2.41
2023-01-01T04:06:06.683Z,2.40
2023-01-01T04:08:34.860Z,2.41
2023-01-01T04:11:27.683Z,2.42
2023-01-01T04:13:54.632Z,2.44
2023-01-01T04:16:23.080Z,2.46
2023-01-01T04:18:50.659Z,2.49
2023-01-01T04:21:17.654Z,2.50
2023-01-01T04:23:44.583Z,2.48
2023-01-01T04:26:13.859Z,2.50
2023-01-01T04:28:41.518Z,2.45
2023-01-01T04:31:08.942Z,2.42
2023-01-01T04:33:37.897Z,2.40
2023-01-01T04:36:06.242Z,2.39
2023-01-01T04:38:34.144Z,2.38
2023-01-01T04:41:02.283Z,2.38
2023-01-01T04:43:30.066Z,2.39
2023-01-01T04:45:57.521Z,2.41
2023-01-01T04:48:25.399Z,2.40
2023-01-01T04:50:58.556Z,2.40
2023-01-01T04:53:26.119Z,2.40
2023-01-01T04:55:53.087Z,2.37
2023-01-01T04:58:20.005Z,2.36
2023-01-01T05:00:49.651Z,2.33
2023-01-01T05:03:16.799Z,2.32
2023-01-01T05:05:49.438Z,2.32
2023-01-01T05:08:19.565Z,2.30
2023-01-01T05:10:46.500Z,2.28
2023-01-01T05:13:13.422Z,2.24
2023-01-01T05:15:40.428Z,2.22
2023-01-01T05:18:07.337Z,2.23
2023-01-01T05:20:35.090Z,2.22
2023-01-01T05:23:02.004Z,2.22
2023-01-01T05:25:30.320Z,2.18
2023-01-01T05:27:57.213Z,2.17
2023-01-01T05:30:24.138Z,2.15
2023-01-01T05:32:51.110Z,2.09
2023-01-01T05:35:21.676Z,2.09
2023-01-01T05:37:53.456Z,2.08
2023-01-01T05:40:22.711Z,2.06
2023-01-01T05:42:51.103Z,2.04
2023-01-01T05:45:18.035Z,2.04
2023-01-01T05:47:44.981Z,2.01
2023-01-01T05:52:37.743Z,2.00
2023-01-01T05:55:05.321Z,2.02
2023-01-01T05:57:32.258Z,1.99
2023-01-01T06:00:03.763Z,2.01
2023-01-01T06:02:33.606Z,2.02
2023-01-01T06:05:00.605Z,2.01
2023-01-01T06:07:27.526Z,2.04
2023-01-01T06:09:54.466Z,2.06
2023-01-01T06:12:21.499Z,2.13
2023-01-01T06:14:48.558Z,2.28
2023-01-01T06:17:16.845Z,2.78
2023-01-01T06:19:43.826Z,3.53
2023-01-01T06:22:10.798Z,4.22
2023-01-01T06:24:39.287Z,4.81
2023-01-01T06:27:07.242Z,5.40
2023-01-01T06:29:34.548Z,5.94
2023-01-01T06:32:01.588Z,6.41
2023-01-01T06:34:29.871Z,6.88
2023-01-01T06:37:01.364Z,7.32
2023-01-01T06:39:31.746Z,7.78
2023-01-01T06:41:58.652Z,8.17
2023-01-01T06:44:25.966Z,8.41
2023-01-01T06:46:52.874Z,8.61
2023-01-01T06:49:19.898Z,8.82
2023-01-01T06:51:48.194Z,8.91
2023-01-01T06:54:15.344Z,8.89
2023-01-01T06:56:42.256Z,8.96
2023-01-01T06:59:09.244Z,9.04
2023-01-01T07:01:44.139Z,9.11
2023-01-01T07:04:14.263Z,9.26
2023-01-01T07:06:42.498Z,9.36
2023-01-01T07:09:10.882Z,9.41
2023-01-01T07:11:38.267Z,9.39
2023-01-01T07:14:05.204Z,9.40
2023-01-01T07:16:32.463Z,9.40
2023-01-01T07:19:00.947Z,9.44
2023-01-01T07:21:32.819Z,9.60
2023-01-01T07:24:01.433Z,9.78
2023-01-01T07:26:32.345Z,9.89
2023-01-01T07:29:06.968Z,10.07
2023-01-01T07:31:39.504Z,10.22
2023-01-01T07:34:07.188Z,10.34
2023-01-01T07:36:34.520Z,10.47
2023-01-01T07:39:04.645Z,10.71
2023-01-01T07:41:33.045Z,10.93
2023-01-01T07:44:00.494Z,11.09
2023-01-01T07:46:28.017Z,11.22
2023-01-01T07:48:54.974Z,11.39
2023-01-01T07:51:22.245Z,11.45
2023-01-01T07:53:49.338Z,11.58
2023-01-01T07:56:16.317Z,11.78
2023-01-01T07:58:44.670Z,12.01
2023-01-01T08:01:12.607Z,12.27
2023-01-01T08:03:39.679Z,12.52
2023-01-01T08:06:09.126Z,12.75
2023-01-01T08:08:36.233Z,12.80
2023-01-01T08:11:04.203Z,12.87
2023-01-01T08:13:31.322Z,13.08
2023-01-01T08:16:00.045Z,13.37
2023-01-01T08:18:27.183Z,13.71
2023-01-01T08:20:54.403Z,13.96
2023-01-01T08:23:21.601Z,14.24
2023-01-01T08:25:48.565Z,14.53
2023-01-01T08:28:15.572Z,14.72
2023-01-01T08:30:42.774Z,14.92
2023-01-01T08:33:11.052Z,15.11
2023-01-01T08:35:40.424Z,15.35
2023-01-01T08:38:07.397Z,15.34
2023-01-01T08:40:37.609Z,15.38
2023-01-01T08:43:04.685Z,15.48
2023-01-01T08:45:31.680Z,15.70
2023-01-01T08:47:58.721Z,15.99
2023-01-01T08:50:27.827Z,16.31
2023-01-01T08:52:59.163Z,16.63
2023-01-01T08:55:26.311Z,16.84
2023-01-01T08:57:53.404Z,17.03
2023-01-01T09:00:20.505Z,17.22
2023-01-01T09:02:47.772Z,17.43
2023-01-01T09:05:14.896Z,17.56
2023-01-01T09:07:46.232Z,17.62
2023-01-01T09:10:13.872Z,17.67
2023-01-01T09:12:40.819Z,17.63
2023-01-01T09:15:14.578Z,17.64
2023-01-01T09:17:41.689Z,17.61
2023-01-01T09:20:09.423Z,17.72
2023-01-01T09:22:36.398Z,17.72
2023-01-01T09:25:06.609Z,17.78
2023-01-01T09:27:33.769Z,17.99
2023-01-01T09:30:00.706Z,18.30
2023-01-01T09:32:29.917Z,18.67
2023-01-01T09:34:57.573Z,19.06
2023-01-01T09:37:24.616Z,19.32
2023-01-01T09:39:51.644Z,19.60
2023-01-01T09:42:31.082Z,19.92
2023-01-01T09:45:21.120Z,19.97
2023-01-01T09:47:54.345Z,19.86
2023-01-01T09:50:24.144Z,19.75
2023-01-01T09:52:54.238Z,19.71
2023-01-01T09:55:28.220Z,19.91
2023-01-01T09:57:57.372Z,20.06
2023-01-01T10:00:25.272Z,20.09
2023-01-01T10:03:25.673Z,20.13
2023-01-01T10:06:01.198Z,19.94
2023-01-01T10:08:41.229Z,19.81
2023-01-01T10:11:17.779Z,19.85
2023-01-01T10:13:46.796Z,19.97
2023-01-01T10:16:25.265Z,20.03
2023-01-01T10:18:55.899Z,20.08
2023-01-01T10:21:26.840Z,20.24
2023-01-01T10:23:57.746Z,20.49
2023-01-01T10:26:29.631Z,20.56
2023-01-01T10:29:02.409Z,20.70
2023-01-01T10:31:34.612Z,20.77
2023-01-01T10:34:19.095Z,20.82
2023-01-01T10:36:53.033Z,20.86
2023-01-01T10:39:20.370Z,20.94
2023-01-01T10:41:48.131Z,20.78
2023-01-01T10:44:27.328Z,20.74
2023-01-01T10:46:57.885Z,20.89
2023-01-01T10:49:25.109Z,21.15
2023-01-01T10:51:53.770Z,21.38
2023-01-01T10:54:32.094Z,21.56
2023-01-01T10:56:59.390Z,21.73
2023-01-01T10:59:36.512Z,21.83
2023-01-01T11:02:19.233Z,21.95
2023-01-01T11:04:46.776Z,22.14
2023-01-01T11:07:21.440Z,22.34
2023-01-01T11:10:03.566Z,22.46
2023-01-01T11:13:05.872Z,22.49
2023-01-01T11:15:31.147Z,22.50
2023-01-01T11:18:04.279Z,22.56
2023-01-01T11:20:33.185Z,22.62
2023-01-01T11:23:29.005Z,22.61
2023-01-01T11:26:05.954Z,22.69
2023-01-01T11:28:35.029Z,22.69
2023-01-01T11:31:14.160Z,22.66
2023-01-01T11:33:45.821Z,22.62
2023-01-01T11:36:23.940Z,22.43
2023-01-01T11:39:06.618Z,22.44
2023-01-01T11:41:45.660Z,22.39
2023-01-01T11:44:22.443Z,22.30
2023-01-01T11:46:50.998Z,22.19
2023-01-01T11:49:23.151Z,22.24
2023-01-01T11:51:50.103Z,22.17
2023-01-01T11:54:32.807Z,22.33
2023-01-01T11:57:07.423Z,22.33
2023-01-01T11:59:44.394Z,22.45
2023-01-01T12:02:18.661Z,22.26
2023-01-01T12:04:50.048Z,21.98
2023-01-01T12:07:22.096Z,21.97
2023-01-01T12:09:54.610Z,22.09
2023-01-01T12:12:28.330Z,22.04
2023-01-01T12:15:00.816Z,22.18
2023-01-01T12:17:34.669Z,22.11
2023-01-01T12:20:04.892Z,21.82
2023-01-01T12:22:31.947Z,21.72
2023-01-01T12:24:59.828Z,21.74
2023-01-01T12:27:38.415Z,21.73
2023-01-01T12:30:21.129Z,21.79
2023-01-01T12:33:08.244Z,21.78
2023-01-01T12:35:52.503Z,21.81
2023-01-01T12:38:33.435Z,21.81
2023-01-01T12:41:08.869Z,21.55
2023-01-01T12:43:43.794Z,21.42
2023-01-01T12:46:20.766Z,21.40
2023-01-01T12:49:12.018Z,21.39
2023-01-01T12:51:47.362Z,21.31
2023-01-01T12:54:52.988Z,21.25
2023-01-01T12:57:27.919Z,21.22
2023-01-01T12:59:55.637Z,21.25
2023-01-01T13:02:25.342Z,21.25
2023-01-01T13:05:00.204Z,21.15
2023-01-01T13:07:31.262Z,21.12
2023-01-01T13:10:04.698Z,21.10
2023-01-01T13:12:33.056Z,21.15
2023-01-01T13:15:01.257Z,21.15
2023-01-01T13:17:30.156Z,21.22
2023-01-01T13:20:00.506Z,21.30
2023-01-01T13:22:39.221Z,21.39
2023-01-01T13:25:18.555Z,21.40
2023-01-01T13:28:13.145Z,21.36
2023-01-01T13:30:49.737Z,21.25
2023-01-01T13:33:32.550Z,21.21
2023-01-01T13:36:39.270Z,21.21
2023-01-01T13:39:08.469Z,21.20
2023-01-01T13:41:41.073Z,21.14
2023-01-01T13:44:17.528Z,21.06
2023-01-01T13:46:54.640Z,20.90
2023-01-01T13:49:34.784Z,20.78
2023-01-01T13:52:23.209Z,20.62
2023-01-01T13:55:17.246Z,20.47
2023-01-01T13:58:11.810Z,20.40
2023-01-01T14:00:49.883Z,20.24
2023-01-01T14:03:18.869Z,20.12
2023-01-01T14:05:49.937Z,20.01
2023-01-01T14:08:31.174Z,19.93
2023-01-01T14:11:03.213Z,19.89
2023-01-01T14:13:32.576Z,19.78
2023-01-01T14:16:02.030Z,19.67
2023-01-01T14:18:34.191Z,19.55
2023-01-01T14:21:01.412Z,19.42
2023-01-01T14:23:32.110Z,19.27
2023-01-01T14:26:02.456Z,19.14
2023-01-01T14:28:31.859Z,19.04
2023-01-01T14:31:05.574Z,18.91
2023-01-01T14:33:38.146Z,18.74
2023-01-01T14:36:14.443Z,18.48
2023-01-01T14:38:45.609Z,18.26
2023-01-01T14:41:18.485Z,18.01
2023-01-01T14:43:47.817Z,17.85
2023-01-01T14:46:17.936Z,17.65
2023-01-01T14:48:48.126Z,17.43
2023-01-01T14:51:18.823Z,17.26
2023-01-01T14:53:50.516Z,17.06
2023-01-01T14:56:30.676Z,16.89
2023-01-01T14:59:06.664Z,16.66
2023-01-01T15:01:33.850Z,16.43
2023-01-01T15:04:02.607Z,16.24
2023-01-01T15:06:30.471Z,16.06
2023-01-01T15:08:58.031Z,16.00
2023-01-01T15:11:29.028Z,15.95
2023-01-01T15:14:00.363Z,15.81
2023-01-01T15:16:33.243Z,15.67
2023-01-01T15:19:17.874Z,15.60
2023-01-01T15:21:46.185Z,15.51
2023-01-01T15:24:15.140Z,15.41
2023-01-01T15:26:44.309Z,15.32
2023-01-01T15:29:21.373Z,15.23
2023-01-01T15:31:53.685Z,15.14
2023-01-01T15:34:24.515Z,15.06
2023-01-01T15:36:53.516Z,14.97
2023-01-01T15:39:21.167Z,14.85
2023-01-01T15:41:49.885Z,14.74
2023-01-01T15:44:23.540Z,14.67
2023-01-01T15:46:53.605Z,14.60
2023-01-01T15:49:26.048Z,14.54
2023-01-01T15:51:55.659Z,14.45
2023-01-01T15:54:22.870Z,14.36
2023-01-01T15:56:50.058Z,14.30
2023-01-01T15:59:24.945Z,14.22
2023-01-01T16:01:52.639Z,14.16
2023-01-01T16:04:28.297Z,14.12
2023-01-01T16:06:57.658Z,14.05
2023-01-01T16:09:24.758Z,13.99
2023-01-01T16:11:52.639Z,13.92
2023-01-01T16:14:21.225Z,13.80
2023-01-01T16:16:52.930Z,13.70
2023-01-01T16:19:21.509Z,13.59
2023-01-01T16:21:48.551Z,13.45
2023-01-01T16:24:17.288Z,13.35
2023-01-01T16:26:45.147Z,13.23
2023-01-01T16:29:12.457Z,13.10
2023-01-01T16:31:41.132Z,13.00
2023-01-01T16:34:11.791Z,12.87
2023-01-01T16:36:38.798Z,12.73
2023-01-01T16:39:05.731Z,12.61
2023-01-01T16:41:32.664Z,12.47
2023-01-01T16:43:59.674Z,12.38
2023-01-01T16:46:28.209Z,12.24
2023-01-01T16:48:57.045Z,12.12
2023-01-01T16:51:26.976Z,11.97
2023-01-01T16:53:54.119Z,11.88
2023-01-01T16:56:21.493Z,11.77
2023-01-01T16:58:50.438Z,11.69
2023-01-01T17:01:19.420Z,11.58
2023-01-01T17:03:46.564Z,11.52
2023-01-01T17:06:15.703Z,11.45
2023-01-01T17:08:42.710Z,11.36
2023-01-01T17:11:14.363Z,11.31
2023-01-01T17:13:41.608Z,11.22
2023-01-01T17:16:09.095Z,11.15
2023-01-01T17:21:25.341Z,10.99
2023-01-01T17:23:53.398Z,10.97
2023-01-01T17:26:23.007Z,10.92
2023-01-01T17:28:56.503Z,10.88
2023-01-01T17:31:28.628Z,10.84
2023-01-01T17:33:55.945Z,10.81
2023-01-01T17:36:24.513Z,10.76
2023-01-01T17:38:51.534Z,10.73
2023-01-01T17:41:18.971Z,10.68
2023-01-01T17:43:48.287Z,10.61
2023-01-01T17:46:17.418Z,10.54
2023-01-01T17:48:45.358Z,10.50
2023-01-01T17:51:13.219Z,10.43
2023-01-01T17:53:41.846Z,10.30
2023-01-01T17:56:12.400Z,10.22
2023-01-01T17:58:40.021Z,10.14
2023-01-01T18:01:22.360Z,10.05
2023-01-01T18:03:50.723Z,9.99
2023-01-01T18:06:17.718Z,9.95
2023-01-01T18:08:46.033Z,9.90
2023-01-01T18:11:12.999Z,9.86
2023-01-01T18:13:40.127Z,9.82
2023-01-01T18:16:09.267Z,9.81
2023-01-01T18:18:37.669Z,9.76
2023-01-01T18:21:05.878Z,9.70
2023-01-01T18:23:33.197Z,9.67
2023-01-01T18:26:02.600Z,9.66
2023-01-01T18:28:29.858Z,9.67
2023-01-01T18:31:04.843Z,9.64
2023-01-01T18:33:32.239Z,9.63
2023-01-01T18:36:03.245Z,9.60
2023-01-01T18:38:30.271Z,9.57
2023-01-01T18:41:18.007Z,9.53
2023-01-01T18:43:45.012Z,9.44
2023-01-01T18:46:12.098Z,9.35
2023-01-01T18:48:39.271Z,9.34
2023-01-01T18:51:15.350Z,9.32
2023-01-01T18:53:42.389Z,9.31
2023-01-01T18:56:12.803Z,9.29
2023-01-01T18:58:41.354Z,9.20
2023-01-01T19:01:14.968Z,9.10
2023-01-01T19:03:42.377Z,9.02
2023-01-01T19:06:24.360Z,8.94
2023-01-01T19:08:51.817Z,8.88
2023-01-01T19:11:21.666Z,8.85
2023-01-01T19:13:49.922Z,8.74
2023-01-01T19:16:24.320Z,8.66
2023-01-01T19:18:52.925Z,8.60
2023-01-01T19:21:23.058Z,8.54
2023-01-01T19:23:51.942Z,8.53
2023-01-01T19:26:25.020Z,8.49
2023-01-01T19:28:54.609Z,8.40
2023-01-01T19:31:22.098Z,8.36
2023-01-01T19:33:49.595Z,8.29
2023-01-01T19:36:16.656Z,8.24
2023-01-01T19:38:44.177Z,8.18
2023-01-01T19:41:11.655Z,8.12
2023-01-01T19:43:39.997Z,8.07
2023-01-01T19:46:06.972Z,8.07
2023-01-01T19:48:34.935Z,8.01
2023-01-01T19:51:01.989Z,7.97
2023-01-01T19:53:28.988Z,7.96
2023-01-01T19:55:56.036Z,7.95
2023-01-01T19:58:23.212Z,7.91
2023-01-01T20:00:52.875Z,7.85
2023-01-01T20:03:52.137Z,7.78
2023-01-01T20:06:08.395Z,7.71
2023-01-01T20:08:38.235Z,7.66
2023-01-01T20:11:06.459Z,7.61
2023-01-01T20:13:33.962Z,7.56
2023-01-01T20:16:03.041Z,7.55
2023-01-01T20:18:30.231Z,7.50
2023-01-01T20:21:19.203Z,7.48
2023-01-01T20:23:50.674Z,7.43
2023-01-01T20:26:17.607Z,7.40
2023-01-01T20:29:03.015Z,7.38
2023-01-01T20:31:31.414Z,7.34
2023-01-01T20:33:58.450Z,7.30
2023-01-01T20:36:43.603Z,7.28
2023-01-01T20:39:10.545Z,7.24
2023-01-01T20:41:37.543Z,7.23
2023-01-01T20:44:04.620Z,7.21
2023-01-01T20:46:36.159Z,7.22
2023-01-01T20:49:03.993Z,7.22
2023-01-01T20:51:30.963Z,7.18
2023-01-01T20:53:57.901Z,7.15
2023-01-01T20:56:24.837Z,7.12
2023-01-01T20:59:00.066Z,7.11
2023-01-01T21:01:31.928Z,7.10
2023-01-01T21:04:00.503Z,7.06
2023-01-01T21:06:27.481Z,7.01
2023-01-01T21:08:55.539Z,6.99
2023-01-01T21:11:22.603Z,6.96
2023-01-01T21:13:49.954Z,6.92
2023-01-01T21:16:19.315Z,6.88
2023-01-01T21:18:47.703Z,6.82
2023-01-01T21:21:19.262Z,6.74
2023-01-01T21:23:46.728Z,6.71
2023-01-01T21:26:16.299Z,6.66
2023-01-01T21:28:44.332Z,6.62
2023-01-01T21:31:13.636Z,6.58
2023-01-01T21:33:42.032Z,6.53
2023-01-01T21:36:16.078Z,6.48
2023-01-01T21:38:45.757Z,6.42
2023-01-01T21:41:16.750Z,6.41
2023-01-01T21:43:45.527Z,6.36
2023-01-01T21:46:33.684Z,6.33
2023-01-01T21:49:04.264Z,6.27
2023-01-01T21:51:33.688Z,6.22
2023-01-01T21:54:16.676Z,6.18
2023-01-01T21:56:50.122Z,6.17
2023-01-01T21:59:28.363Z,6.17
2023-01-01T22:02:15.415Z,6.12
2023-01-01T22:04:45.298Z,6.07
2023-01-01T22:10:14.494Z,5.94
2023-01-01T22:12:41.785Z,5.92
2023-01-01T22:15:31.020Z,5.86
2023-01-01T22:18:14.383Z,5.81
2023-01-01T22:20:43.175Z,5.79
2023-01-01T22:23:22.587Z,5.77
2023-01-01T22:25:51.699Z,5.78
2023-01-01T22:28:22.987Z,5.79
2023-01-01T22:30:54.051Z,5.78
2023-01-01T22:33:26.009Z,5.81
2023-01-01T22:35:54.741Z,5.80
2023-01-01T22:38:24.053Z,5.76
2023-01-01T22:40:52.435Z,5.68
2023-01-01T22:43:26.853Z,5.67
2023-01-01T22:45:54.186Z,5.65
2023-01-01T22:48:23.780Z,5.66
2023-01-01T22:50:52.542Z,5.68
2023-01-01T22:53:19.833Z,5.68
2023-01-01T22:55:46.894Z,5.68
2023-01-01T22:58:15.219Z,5.68
2023-01-01T23:00:42.307Z,5.68
2023-01-01T23:03:09.406Z,5.67
2023-01-01T23:05:36.813Z,5.64
2023-01-01T23:08:03.905Z,5.61
2023-01-01T23:10:31.784Z,5.57
2023-01-01T23:13:18.845Z,5.55
2023-01-01T23:16:02.677Z,5.52
2023-01-01T23:18:31.881Z,5.44
2023-01-01T23:21:00.272Z,5.39
2023-01-01T23:23:28.809Z,5.37
2023-01-01T23:25:56.457Z,5.35
2023-01-01T23:28:24.275Z,5.30
2023-01-01T23:30:53.135Z,5.25
2023-01-01T23:33:21.087Z,5.22
2023-01-01T23:35:48.869Z,5.21
2023-01-01T23:38:16.296Z,5.20
2023-01-01T23:40:43.263Z,5.18
2023-01-01T23:43:10.203Z,5.19
2023-01-01T23:45:37.623Z,5.17
2023-01-01T23:48:07.220Z,5.10
2023-01-01T23:50:34.764Z,5.05
2023-01-01T23:53:01.954Z,5.03
2023-01-01T23:55:28.899Z,4.98
2023-01-01T23:57:55.816Z,4.96
